TNCE/EUX METAR and TAF weather

Enter ICAO airport designator
Station Type Date Time Source
TNCE METAR 2020/03/31 06:55 UTC NOAA

TNCE 310655Z AUTO 08006KT 030V110 //// // ///////// 24/20 Q1013 RE//


Station Type Date Time Source
TNCE Decoded METAR 2020/03/31 06:55 UTC NOAA

Roosevelt Airport Saint Eustatius, Netherlands Antilles (TNCE) 17-29N 062-59W 39M
Mar 31, 2020 - 02:55 AM EDT / 2020.03.31 0655 UTC
Wind: from the E (080 degrees) at 7 MPH (6 KT) (direction variable):0
Temperature: 75 F (24 C)
Dew Point: 68 F (20 C)
Relative Humidity: 78%
Pressure (altimeter): 29.91 in. Hg (1013 hPa)
ob: TNCE 310655Z AUTO 08006KT 030V110 //// // ///////// 24/20 Q1013 RE//
cycle: 7

Station Type Date Time Source
TNCE TAF UTC NOAA

Error!

Example: see airport list